EDDT/TXL METAR and TAF weather

Enter ICAO airport designator
Station Type Date Time Source
EDDT METAR 2019/08/22 02:20 UTC NOAA

EDDT 220220Z VRB01KT CAVOK 12/09 Q1028


Station Type Date Time Source
EDDT Decoded METAR 2019/08/22 02:20 UTC NOAA

Station name not available
Aug 21, 2019 - 10:20 PM EDT / 2019.08.22 0220 UTC
Wind: Variable at 1 MPH (1 KT):0
Visibility: greater than 7 mile(s):0
Temperature: 53 F (12 C)
Dew Point: 48 F (9 C)
Relative Humidity: 81%
Pressure (altimeter): 30.36 in. Hg (1028 hPa)
ob: EDDT 220220Z VRB01KT CAVOK 12/09 Q1028
cycle: 2

Station Type Date Time Source
EDDT TAF 2019/08/21 18:27 UTC NOAA

TAF EDDT 211700Z 2118/2218 29007KT CAVOK
BECMG 2118/2120 VRB02KT
BECMG 2205/2208 15005KT

Example: see airport list